createdAt,value
2018-12-31T00:01:37.642Z,22.37
2018-12-31T00:04:04.278Z,22.97
2018-12-31T00:06:30.574Z,22.80
2018-12-31T00:08:56.989Z,22.50
2018-12-31T00:11:23.564Z,24.17
2018-12-31T00:13:49.959Z,23.73
2018-12-31T00:16:16.475Z,25.23
2018-12-31T00:18:43.044Z,24.73
2018-12-31T00:21:09.549Z,24.10
2018-12-31T00:23:36.207Z,24.00
2018-12-31T00:26:02.848Z,24.13
2018-12-31T00:28:29.392Z,23.30
2018-12-31T00:30:55.934Z,24.37
2018-12-31T00:33:22.323Z,25.23
2018-12-31T00:35:48.843Z,25.77
2018-12-31T00:38:15.530Z,24.33
2018-12-31T00:40:41.982Z,23.63
2018-12-31T00:43:08.611Z,24.00
2018-12-31T00:45:35.004Z,25.80
2018-12-31T00:48:01.645Z,24.03
2018-12-31T00:50:28.069Z,25.73
2018-12-31T00:52:54.529Z,26.80
2018-12-31T00:55:20.954Z,27.07
2018-12-31T00:57:47.503Z,28.80
2018-12-31T01:00:14.026Z,29.87
2018-12-31T01:02:40.551Z,30.13
2018-12-31T01:05:07.259Z,30.73
2018-12-31T01:07:33.758Z,29.70
2018-12-31T01:10:00.664Z,30.83
2018-12-31T01:12:27.244Z,30.37
2018-12-31T01:14:53.784Z,27.50
2018-12-31T01:17:20.215Z,29.20
2018-12-31T01:19:46.709Z,26.87
2018-12-31T01:22:13.248Z,26.70
2018-12-31T01:24:39.854Z,26.67
2018-12-31T01:27:06.305Z,27.23
2018-12-31T01:29:32.599Z,26.83
2018-12-31T01:31:59.135Z,26.67
2018-12-31T01:34:25.522Z,26.17
2018-12-31T01:36:51.822Z,25.43
2018-12-31T01:39:18.116Z,24.83
2018-12-31T01:41:44.485Z,25.53
2018-12-31T01:44:10.821Z,25.10
2018-12-31T01:46:37.148Z,25.07
2018-12-31T01:49:03.598Z,25.73
2018-12-31T01:51:30.133Z,25.67
2018-12-31T01:53:56.434Z,24.90
2018-12-31T01:56:22.836Z,24.77
2018-12-31T01:58:49.311Z,26.70
2018-12-31T02:01:15.741Z,27.87
2018-12-31T02:03:42.131Z,29.37
2018-12-31T02:06:08.501Z,28.23
2018-12-31T02:08:34.962Z,26.47
2018-12-31T02:11:01.688Z,27.63
2018-12-31T02:13:28.186Z,28.73
2018-12-31T02:15:54.611Z,30.50
2018-12-31T02:18:20.957Z,32.60
2018-12-31T02:20:47.254Z,32.60
2018-12-31T02:23:13.567Z,32.77
2018-12-31T02:25:39.933Z,34.47
2018-12-31T02:28:06.225Z,31.73
2018-12-31T02:30:32.622Z,30.33
2018-12-31T02:32:59.043Z,29.73
2018-12-31T02:35:25.588Z,28.87
2018-12-31T02:37:52.228Z,28.70
2018-12-31T02:40:18.560Z,29.90
2018-12-31T02:42:45.068Z,27.77
2018-12-31T02:45:11.362Z,27.10
2018-12-31T02:47:37.802Z,28.73
2018-12-31T02:50:05.523Z,27.80
2018-12-31T02:52:31.911Z,25.77
2018-12-31T02:54:58.304Z,26.73
2018-12-31T02:57:24.688Z,27.73
2018-12-31T02:59:51.071Z,25.80
2018-12-31T03:02:17.451Z,25.93
2018-12-31T03:04:43.983Z,27.20
2018-12-31T03:07:10.724Z,28.00
2018-12-31T03:09:37.066Z,28.20
2018-12-31T03:12:03.333Z,26.57
2018-12-31T03:14:29.742Z,26.73
2018-12-31T03:16:56.039Z,25.50
2018-12-31T03:19:22.451Z,25.17
2018-12-31T03:21:48.754Z,24.97
2018-12-31T03:24:15.278Z,25.40
2018-12-31T03:26:41.542Z,26.90
2018-12-31T03:29:08.049Z,27.80
2018-12-31T03:31:34.355Z,26.73
2018-12-31T03:34:00.889Z,28.10
2018-12-31T03:36:27.468Z,27.17
2018-12-31T03:38:53.708Z,28.17
2018-12-31T03:41:20.008Z,29.83
2018-12-31T03:43:46.312Z,30.43
2018-12-31T03:46:12.712Z,29.40
2018-12-31T03:48:39.108Z,31.10
2018-12-31T03:51:05.615Z,29.43
2018-12-31T03:53:31.919Z,28.53
2018-12-31T03:55:58.377Z,29.47
2018-12-31T03:58:25.044Z,30.73
2018-12-31T04:00:51.432Z,30.03
2018-12-31T04:03:17.817Z,32.30
2018-12-31T04:05:44.333Z,34.80
2018-12-31T04:08:10.773Z,36.47
2018-12-31T04:10:37.045Z,36.97
2018-12-31T04:13:03.452Z,37.00
2018-12-31T04:15:29.926Z,40.10
2018-12-31T04:17:56.234Z,40.87
2018-12-31T04:20:22.635Z,38.83
2018-12-31T04:22:48.920Z,40.60
2018-12-31T04:25:15.194Z,39.77
2018-12-31T04:27:41.591Z,41.50
2018-12-31T04:30:08.085Z,41.80
2018-12-31T04:32:34.479Z,41.60
2018-12-31T04:35:00.979Z,42.73
2018-12-31T04:37:27.384Z,41.57
2018-12-31T04:39:53.685Z,42.60
2018-12-31T04:42:19.971Z,41.53
2018-12-31T04:44:46.395Z,44.97
2018-12-31T04:47:12.679Z,42.47
2018-12-31T04:49:39.104Z,42.83
2018-12-31T04:52:05.409Z,42.70
2018-12-31T04:54:31.672Z,45.53
2018-12-31T04:56:58.016Z,43.17
2018-12-31T04:59:24.404Z,42.87
2018-12-31T05:01:50.788Z,44.97
2018-12-31T05:04:17.198Z,43.90
2018-12-31T05:06:43.497Z,45.37
2018-12-31T05:09:09.808Z,44.67
2018-12-31T05:11:36.105Z,44.80
2018-12-31T05:14:02.513Z,46.17
2018-12-31T05:16:28.909Z,46.20
2018-12-31T05:18:55.330Z,45.50
2018-12-31T05:21:21.717Z,48.07
2018-12-31T05:23:48.033Z,50.13
2018-12-31T05:26:14.461Z,48.83
2018-12-31T05:28:40.738Z,51.10
2018-12-31T05:31:07.028Z,49.33
2018-12-31T05:33:33.425Z,48.13
2018-12-31T05:35:59.915Z,48.80
2018-12-31T05:38:26.233Z,51.27
2018-12-31T05:40:52.611Z,49.03
2018-12-31T05:43:19.085Z,51.27
2018-12-31T05:45:45.504Z,50.67
2018-12-31T05:48:11.874Z,51.00
2018-12-31T05:50:38.167Z,48.43
2018-12-31T05:53:04.453Z,48.57
2018-12-31T05:55:30.744Z,46.47
2018-12-31T05:57:57.085Z,48.73
2018-12-31T06:00:23.389Z,49.47
2018-12-31T06:02:49.810Z,47.37
2018-12-31T06:05:16.194Z,45.67
2018-12-31T06:07:42.518Z,42.93
2018-12-31T06:10:09.089Z,43.43
2018-12-31T06:12:35.379Z,41.57
2018-12-31T06:15:02.613Z,43.00
2018-12-31T06:17:28.873Z,42.43
2018-12-31T06:19:55.219Z,42.83
2018-12-31T06:22:21.497Z,41.80
2018-12-31T06:24:47.778Z,42.57
2018-12-31T06:27:14.073Z,44.80
2018-12-31T06:29:40.383Z,43.97
2018-12-31T06:32:06.680Z,42.80
2018-12-31T06:34:33.150Z,42.83
2018-12-31T06:36:59.564Z,43.87
2018-12-31T06:39:25.862Z,44.00
2018-12-31T06:41:52.320Z,45.37
2018-12-31T06:44:18.620Z,43.87
2018-12-31T06:46:44.904Z,41.93
2018-12-31T06:49:11.189Z,44.40
2018-12-31T06:51:37.493Z,42.40
2018-12-31T06:54:03.817Z,41.13
2018-12-31T06:56:30.139Z,42.00
2018-12-31T06:58:56.451Z,40.97
2018-12-31T07:01:22.719Z,39.27
2018-12-31T07:03:49.020Z,41.00
2018-12-31T07:06:15.303Z,41.40
2018-12-31T07:08:41.618Z,40.63
2018-12-31T07:11:08.033Z,38.70
2018-12-31T07:13:34.397Z,37.67
2018-12-31T07:16:00.797Z,39.43
2018-12-31T07:18:27.199Z,40.50
2018-12-31T07:20:53.608Z,41.83
2018-12-31T07:23:19.885Z,44.13
2018-12-31T07:25:46.284Z,42.57
2018-12-31T07:28:12.776Z,41.00
2018-12-31T07:30:39.235Z,40.10
2018-12-31T07:33:05.494Z,40.40
2018-12-31T07:35:31.896Z,38.97
2018-12-31T07:37:58.196Z,37.37
2018-12-31T07:40:24.599Z,38.30
2018-12-31T07:42:50.998Z,36.97
2018-12-31T07:45:17.400Z,36.70
2018-12-31T07:47:43.738Z,37.73
2018-12-31T07:50:10.337Z,37.67
2018-12-31T07:52:36.755Z,37.17
2018-12-31T07:55:03.865Z,35.63
2018-12-31T07:57:30.190Z,37.17
2018-12-31T07:59:56.569Z,36.70
2018-12-31T08:02:22.962Z,43.73
2018-12-31T08:04:49.255Z,36.93
2018-12-31T08:07:15.958Z,32.80
2018-12-31T08:09:42.389Z,32.50
2018-12-31T08:12:08.779Z,31.53
2018-12-31T08:14:35.064Z,31.40
2018-12-31T08:17:01.729Z,31.07
2018-12-31T08:19:28.030Z,29.30
2018-12-31T08:21:54.414Z,31.17
2018-12-31T08:24:21.354Z,29.07
2018-12-31T08:26:47.830Z,31.27
2018-12-31T08:29:14.141Z,30.70
2018-12-31T08:31:40.555Z,31.63
2018-12-31T08:34:07.127Z,31.33
2018-12-31T08:36:33.527Z,31.20
2018-12-31T08:38:59.935Z,29.80
2018-12-31T08:41:26.246Z,29.87
2018-12-31T08:43:52.681Z,30.50
2018-12-31T08:46:19.088Z,26.80
2018-12-31T08:48:45.641Z,29.93
2018-12-31T08:51:11.985Z,30.23
2018-12-31T08:53:38.490Z,30.00
2018-12-31T08:56:04.914Z,30.83
2018-12-31T08:58:31.480Z,30.43
2018-12-31T09:00:58.145Z,31.77
2018-12-31T09:03:24.555Z,32.20
2018-12-31T09:05:51.165Z,31.73
2018-12-31T09:08:17.736Z,32.10
2018-12-31T09:10:44.138Z,31.90
2018-12-31T09:13:10.715Z,32.00
2018-12-31T09:15:37.303Z,31.33
2018-12-31T09:18:03.714Z,32.10
2018-12-31T09:20:30.213Z,31.97
2018-12-31T09:22:56.602Z,32.63
2018-12-31T09:25:22.951Z,38.67
2018-12-31T09:27:49.795Z,32.13
2018-12-31T09:30:16.160Z,30.93
2018-12-31T09:32:42.492Z,30.83
2018-12-31T09:35:09.296Z,30.97
2018-12-31T09:37:35.958Z,30.83
2018-12-31T09:40:03.736Z,31.00
2018-12-31T09:42:30.211Z,31.50
2018-12-31T09:44:56.594Z,32.23
2018-12-31T09:47:23.044Z,32.97
2018-12-31T09:49:49.590Z,31.40
2018-12-31T09:52:16.118Z,29.60
2018-12-31T09:54:42.711Z,28.87
2018-12-31T09:57:09.235Z,28.13
2018-12-31T09:59:35.900Z,29.70
2018-12-31T10:02:02.422Z,32.03
2018-12-31T10:04:28.983Z,32.37
2018-12-31T10:06:55.486Z,31.20
2018-12-31T10:09:21.967Z,31.90
2018-12-31T10:11:48.506Z,32.00
2018-12-31T10:14:15.045Z,29.90
2018-12-31T10:16:42.297Z,31.47
2018-12-31T10:19:08.669Z,31.13
2018-12-31T10:21:40.970Z,30.17
2018-12-31T10:24:04.472Z,28.67
2018-12-31T10:26:30.864Z,29.90
2018-12-31T10:28:57.358Z,29.90
2018-12-31T10:31:24.051Z,28.53
2018-12-31T10:33:50.535Z,28.07
2018-12-31T10:36:16.957Z,28.63
2018-12-31T10:38:43.585Z,27.93
2018-12-31T10:41:10.113Z,27.27
2018-12-31T10:43:36.539Z,26.27
2018-12-31T10:46:03.049Z,26.77
2018-12-31T10:48:29.479Z,26.07
2018-12-31T10:50:55.875Z,27.10
2018-12-31T10:53:22.355Z,25.97
2018-12-31T10:55:48.782Z,28.17
2018-12-31T10:58:15.699Z,28.23
2018-12-31T11:00:42.336Z,27.27
2018-12-31T11:03:09.110Z,27.57
2018-12-31T11:05:35.607Z,29.67
2018-12-31T11:08:02.215Z,29.47
2018-12-31T11:10:29.005Z,30.93
2018-12-31T11:12:55.734Z,29.63
2018-12-31T11:15:22.351Z,29.43
2018-12-31T11:17:48.946Z,31.70
2018-12-31T11:20:15.597Z,29.13
2018-12-31T11:22:42.477Z,29.87
2018-12-31T11:25:09.277Z,28.17
2018-12-31T11:27:35.697Z,27.63
2018-12-31T11:30:02.626Z,29.17
2018-12-31T11:32:29.176Z,27.00
2018-12-31T11:34:55.868Z,26.43
2018-12-31T11:37:22.271Z,27.43
2018-12-31T11:39:48.795Z,26.60
2018-12-31T11:42:15.210Z,26.40
2018-12-31T11:44:41.605Z,26.33
2018-12-31T11:47:08.024Z,26.03
2018-12-31T11:49:34.746Z,26.23
2018-12-31T11:52:01.274Z,25.70
2018-12-31T11:54:27.730Z,24.40
2018-12-31T11:56:54.172Z,23.77
2018-12-31T11:59:20.624Z,23.67
2018-12-31T12:01:47.145Z,24.77
2018-12-31T12:04:13.585Z,23.13
2018-12-31T12:06:40.181Z,24.17
2018-12-31T12:09:06.525Z,24.50
2018-12-31T12:11:33.190Z,25.03
2018-12-31T12:13:59.740Z,23.97
2018-12-31T12:16:26.532Z,25.70
2018-12-31T12:18:52.972Z,24.40
2018-12-31T12:21:20.043Z,24.73
2018-12-31T12:23:46.687Z,25.67
2018-12-31T12:26:13.540Z,24.63
2018-12-31T12:28:40.086Z,23.87
2018-12-31T12:31:06.624Z,25.17
2018-12-31T12:33:33.182Z,25.43
2018-12-31T12:36:00.187Z,26.93
2018-12-31T12:38:26.882Z,26.67
2018-12-31T12:40:53.663Z,25.47
2018-12-31T12:43:20.311Z,24.60
2018-12-31T12:45:46.957Z,24.23
2018-12-31T12:48:13.894Z,23.80
2018-12-31T12:50:41.016Z,24.53
2018-12-31T12:53:07.588Z,25.30
2018-12-31T12:55:34.273Z,27.03
2018-12-31T12:58:01.006Z,26.87
2018-12-31T13:00:27.820Z,23.73
2018-12-31T13:02:54.652Z,25.47
2018-12-31T13:05:21.847Z,22.90
2018-12-31T13:07:49.006Z,23.43
2018-12-31T13:10:15.572Z,21.03
2018-12-31T13:12:42.217Z,22.47
2018-12-31T13:15:09.066Z,23.13
2018-12-31T13:25:10.517Z,24.23
2018-12-31T13:27:36.796Z,24.40
2018-12-31T13:30:04.474Z,22.90
2018-12-31T13:32:30.990Z,24.27
2018-12-31T13:34:57.393Z,25.20
2018-12-31T13:37:23.936Z,26.60
2018-12-31T13:39:50.532Z,28.20
2018-12-31T13:42:17.319Z,27.47
2018-12-31T13:44:43.927Z,29.20
2018-12-31T13:47:10.620Z,31.93
2018-12-31T13:49:37.122Z,34.63
2018-12-31T13:52:03.746Z,32.53
2018-12-31T13:54:30.274Z,35.23
2018-12-31T13:56:56.909Z,33.87
2018-12-31T13:59:23.721Z,34.27
2018-12-31T14:01:50.235Z,33.87
2018-12-31T14:04:16.906Z,30.00
2018-12-31T14:06:44.948Z,31.80
2018-12-31T14:09:11.486Z,31.23
2018-12-31T14:11:38.139Z,30.77
2018-12-31T14:14:04.580Z,29.63
2018-12-31T14:16:32.465Z,29.17
2018-12-31T14:18:59.271Z,29.20
2018-12-31T14:21:25.750Z,28.07
2018-12-31T14:23:52.141Z,28.00
2018-12-31T14:26:19.187Z,27.53
2018-12-31T14:28:46.136Z,27.60
2018-12-31T14:31:12.799Z,28.83
2018-12-31T14:33:39.478Z,28.23
2018-12-31T14:36:06.236Z,29.73
2018-12-31T14:38:32.744Z,30.50
2018-12-31T14:40:59.229Z,29.17
2018-12-31T14:43:25.997Z,28.20
2018-12-31T14:45:52.655Z,31.33
2018-12-31T14:48:19.269Z,39.93
2018-12-31T14:50:46.255Z,32.23
2018-12-31T14:53:12.746Z,32.17
2018-12-31T14:58:07.898Z,34.57
2018-12-31T15:00:34.610Z,33.70
2018-12-31T15:03:01.168Z,35.13
2018-12-31T15:05:27.821Z,36.20
2018-12-31T15:07:54.549Z,35.60
2018-12-31T15:10:21.091Z,36.07
2018-12-31T15:12:48.047Z,37.70
2018-12-31T15:15:14.688Z,36.63
2018-12-31T15:17:41.256Z,37.13
2018-12-31T15:20:08.459Z,37.37
2018-12-31T15:22:35.146Z,36.47
2018-12-31T15:25:01.814Z,37.93
2018-12-31T15:27:28.897Z,37.63
2018-12-31T15:29:55.219Z,36.97
2018-12-31T15:32:21.861Z,38.37
2018-12-31T15:34:48.572Z,36.47
2018-12-31T15:37:15.005Z,36.80
2018-12-31T15:39:41.585Z,38.80
2018-12-31T15:42:08.297Z,37.17
2018-12-31T15:44:34.847Z,38.93
2018-12-31T15:47:02.431Z,45.97
2018-12-31T15:49:28.877Z,38.07
2018-12-31T15:51:55.496Z,33.43
2018-12-31T15:54:22.320Z,35.07
2018-12-31T15:56:48.853Z,34.57
2018-12-31T15:59:15.631Z,32.47
2018-12-31T16:01:42.368Z,31.10
2018-12-31T16:04:08.666Z,33.57
2018-12-31T16:06:35.298Z,31.57
2018-12-31T16:09:03.086Z,31.53
2018-12-31T16:11:29.643Z,32.20
2018-12-31T16:13:56.174Z,31.53
2018-12-31T16:16:22.682Z,30.47
2018-12-31T16:18:49.383Z,32.70
2018-12-31T16:21:15.904Z,29.33
2018-12-31T16:23:42.739Z,30.93
2018-12-31T16:26:09.928Z,29.63
2018-12-31T16:28:36.376Z,29.33
2018-12-31T16:31:03.080Z,30.87
2018-12-31T16:33:29.710Z,32.43
2018-12-31T16:35:56.262Z,31.07
2018-12-31T16:38:23.087Z,30.87
2018-12-31T16:40:49.729Z,34.70
2018-12-31T16:43:16.276Z,36.50
2018-12-31T16:45:42.828Z,40.17
2018-12-31T16:48:09.460Z,35.80
2018-12-31T16:50:35.977Z,37.17
2018-12-31T16:53:02.540Z,39.97
2018-12-31T16:55:29.185Z,38.93
2018-12-31T16:57:56.124Z,38.13
2018-12-31T17:00:23.077Z,39.47
2018-12-31T17:02:49.581Z,39.63
2018-12-31T17:05:16.177Z,39.37
2018-12-31T17:07:42.617Z,35.90
2018-12-31T17:10:09.267Z,37.70
2018-12-31T17:12:36.112Z,34.83
2018-12-31T17:15:04.330Z,34.53
2018-12-31T17:17:30.721Z,35.40
2018-12-31T17:19:57.423Z,34.53
2018-12-31T17:22:24.077Z,34.23
2018-12-31T17:24:50.703Z,33.90
2018-12-31T17:27:18.133Z,33.23
2018-12-31T17:29:44.903Z,33.10
2018-12-31T17:32:11.331Z,33.13
2018-12-31T17:34:37.739Z,35.07
2018-12-31T17:37:04.164Z,33.87
2018-12-31T17:39:30.711Z,34.37
2018-12-31T17:41:57.241Z,34.33
2018-12-31T17:44:23.597Z,36.40
2018-12-31T17:46:50.196Z,35.43
2018-12-31T17:49:16.562Z,33.87
2018-12-31T17:51:43.150Z,36.10
2018-12-31T17:54:09.694Z,36.80
2018-12-31T17:56:36.362Z,38.00
2018-12-31T17:59:03.216Z,38.50
2018-12-31T18:01:29.683Z,38.57
2018-12-31T18:03:56.079Z,39.63
2018-12-31T18:06:22.514Z,40.70
2018-12-31T18:08:49.149Z,39.17
2018-12-31T18:11:15.455Z,40.57
2018-12-31T18:13:42.307Z,41.30
2018-12-31T18:16:08.790Z,38.37
2018-12-31T18:18:35.320Z,66.43
2018-12-31T18:21:01.843Z,39.87
2018-12-31T18:23:28.612Z,41.10
2018-12-31T18:25:55.116Z,43.07
2018-12-31T18:28:21.937Z,41.10
2018-12-31T18:30:48.367Z,40.97
2018-12-31T18:33:14.771Z,41.27
2018-12-31T18:35:41.326Z,40.90
2018-12-31T18:38:07.779Z,42.87
2018-12-31T18:40:34.373Z,38.93
2018-12-31T18:43:00.853Z,38.60
2018-12-31T18:45:29.315Z,40.40
2018-12-31T18:47:55.866Z,40.87
2018-12-31T18:50:22.416Z,42.00
2018-12-31T18:52:48.823Z,42.30
2018-12-31T18:55:15.261Z,42.60
2018-12-31T18:57:41.782Z,40.30
2018-12-31T19:00:08.696Z,39.30
2018-12-31T19:02:35.292Z,39.97
2018-12-31T19:05:01.831Z,38.03
2018-12-31T19:07:28.350Z,37.43
2018-12-31T19:09:54.830Z,34.03
2018-12-31T19:12:21.591Z,32.40
2018-12-31T19:14:48.226Z,31.57
2018-12-31T19:17:14.831Z,31.70
2018-12-31T19:19:41.370Z,32.17
2018-12-31T19:22:07.795Z,31.27
2018-12-31T19:24:34.203Z,31.40
2018-12-31T19:27:00.717Z,31.33
2018-12-31T19:29:27.437Z,32.10
2018-12-31T19:31:53.988Z,30.90
2018-12-31T19:34:20.582Z,32.47
2018-12-31T19:36:46.937Z,36.10
2018-12-31T19:39:13.411Z,35.03
2018-12-31T19:41:39.728Z,37.33
2018-12-31T19:44:06.167Z,36.33
2018-12-31T19:46:32.716Z,44.70
2018-12-31T19:48:59.127Z,35.53
2018-12-31T19:51:25.606Z,33.53
2018-12-31T19:53:52.157Z,34.87
2018-12-31T19:56:18.832Z,34.73
2018-12-31T19:58:45.491Z,35.10
2018-12-31T20:01:12.242Z,35.60
2018-12-31T20:03:38.578Z,40.30
2018-12-31T20:06:05.062Z,34.03
2018-12-31T20:08:32.059Z,30.17
2018-12-31T20:10:58.483Z,31.20
2018-12-31T20:13:25.048Z,29.87
2018-12-31T20:15:52.205Z,28.53
2018-12-31T20:18:18.719Z,32.43
2018-12-31T20:20:45.265Z,31.40
2018-12-31T20:23:11.738Z,28.60
2018-12-31T20:25:38.352Z,26.23
2018-12-31T20:28:06.123Z,27.30
2018-12-31T20:30:33.079Z,28.00
2018-12-31T20:32:59.727Z,27.27
2018-12-31T20:35:26.268Z,26.90
2018-12-31T20:37:52.871Z,26.07
2018-12-31T20:40:19.523Z,25.23
2018-12-31T20:42:45.869Z,26.93
2018-12-31T20:45:12.587Z,28.20
2018-12-31T20:47:39.236Z,28.47
2018-12-31T20:50:06.283Z,30.77
2018-12-31T20:52:32.811Z,31.07
2018-12-31T20:54:59.581Z,35.33
2018-12-31T20:57:26.263Z,33.73
2018-12-31T20:59:52.702Z,35.40
2018-12-31T21:02:19.283Z,37.87
2018-12-31T21:04:46.407Z,36.73
2018-12-31T21:07:13.127Z,36.17
2018-12-31T21:09:39.560Z,35.77
2018-12-31T21:12:06.036Z,36.53
2018-12-31T21:14:32.823Z,36.90
2018-12-31T21:16:59.537Z,46.00
2018-12-31T21:19:26.183Z,40.97
2018-12-31T21:21:52.707Z,36.53
2018-12-31T21:24:19.354Z,36.17
2018-12-31T21:26:46.025Z,37.57
2018-12-31T21:29:12.307Z,37.73
2018-12-31T21:31:39.098Z,45.23
2018-12-31T21:34:05.597Z,41.47
2018-12-31T21:36:32.319Z,39.57
2018-12-31T21:38:59.072Z,39.37
2018-12-31T21:41:25.776Z,38.27
2018-12-31T21:43:52.289Z,39.10
2018-12-31T21:46:18.733Z,40.00
2018-12-31T21:48:45.217Z,37.60
2018-12-31T21:51:11.638Z,39.87
2018-12-31T21:53:38.052Z,40.77
2018-12-31T21:56:04.721Z,36.50
2018-12-31T21:58:31.047Z,37.00
2018-12-31T22:00:57.587Z,35.83
2018-12-31T22:03:24.063Z,36.63
2018-12-31T22:05:50.347Z,42.10
2018-12-31T22:08:17.273Z,38.03
2018-12-31T22:10:43.851Z,37.00
2018-12-31T22:13:10.526Z,35.30
2018-12-31T22:15:37.053Z,37.40
2018-12-31T22:18:03.625Z,37.53
2018-12-31T22:20:30.219Z,66.00
2018-12-31T22:22:56.858Z,42.33
2018-12-31T22:25:23.474Z,42.07
2018-12-31T22:27:49.880Z,54.87
2018-12-31T22:30:16.428Z,48.70
2018-12-31T22:32:43.027Z,47.53
2018-12-31T22:35:09.531Z,49.67
2018-12-31T22:37:36.130Z,50.37
2018-12-31T22:40:03.585Z,52.03
2018-12-31T22:42:30.282Z,51.23
2018-12-31T22:44:56.919Z,51.33
2018-12-31T22:47:23.357Z,52.47
2018-12-31T22:49:49.908Z,54.90
2018-12-31T22:52:16.206Z,53.57
2018-12-31T22:54:43.014Z,56.40
2018-12-31T22:57:09.484Z,56.53
2018-12-31T22:59:36.063Z,61.47
2018-12-31T23:02:03.027Z,63.33
2018-12-31T23:04:29.783Z,69.17
2018-12-31T23:06:56.783Z,145.33
2018-12-31T23:09:23.731Z,160.97
2018-12-31T23:11:50.218Z,153.13
2018-12-31T23:14:16.827Z,272.43
2018-12-31T23:16:43.441Z,263.43
2018-12-31T23:19:09.913Z,297.53
2018-12-31T23:21:36.425Z,306.37
2018-12-31T23:24:03.327Z,263.80
2018-12-31T23:26:29.923Z,253.10
2018-12-31T23:28:56.367Z,247.27
2018-12-31T23:31:22.789Z,211.03
2018-12-31T23:33:49.419Z,206.83
2018-12-31T23:36:16.077Z,165.27
2018-12-31T23:38:42.561Z,158.10
2018-12-31T23:41:09.095Z,167.80
2018-12-31T23:43:35.692Z,140.77
2018-12-31T23:46:02.087Z,140.17
2018-12-31T23:48:28.634Z,135.63
2018-12-31T23:50:55.245Z,134.77
2018-12-31T23:53:21.697Z,122.73
2018-12-31T23:55:48.496Z,132.70
2018-12-31T23:58:15.008Z,145.73
